createdAt,value
2022-09-12T00:02:32.080Z,14.73
2022-09-12T00:07:34.139Z,14.55
2022-09-12T00:12:35.676Z,14.51
2022-09-12T00:17:38.946Z,14.52
2022-09-12T00:22:40.553Z,14.45
2022-09-12T00:27:42.125Z,14.41
2022-09-12T00:32:44.509Z,14.68
2022-09-12T00:37:46.728Z,14.57
2022-09-12T00:42:48.253Z,14.72
2022-09-12T00:47:49.926Z,14.69
2022-09-12T00:53:00.201Z,14.46
2022-09-12T00:58:23.348Z,14.49
2022-09-12T01:03:26.234Z,14.34
2022-09-12T01:08:28.665Z,14.17
2022-09-12T01:13:31.839Z,14.10
2022-09-12T01:18:50.355Z,14.02
2022-09-12T01:24:33.589Z,13.89
2022-09-12T01:29:59.871Z,13.82
2022-09-12T01:35:21.866Z,13.87
2022-09-12T01:40:31.543Z,13.88
2022-09-12T01:45:45.405Z,14.03
2022-09-12T01:50:56.621Z,13.94
2022-09-12T01:56:07.948Z,14.04
2022-09-12T02:01:15.718Z,13.99
2022-09-12T02:06:47.387Z,13.87
2022-09-12T02:11:53.349Z,13.84
2022-09-12T02:17:01.428Z,13.81
2022-09-12T02:22:04.874Z,13.76
2022-09-12T02:27:13.240Z,13.73
2022-09-12T02:32:18.054Z,13.72
2022-09-12T02:37:38.630Z,13.74
2022-09-12T02:42:40.502Z,13.77
2022-09-12T02:47:46.944Z,13.69
2022-09-12T02:52:48.772Z,13.95
2022-09-12T02:57:50.291Z,14.00
2022-09-12T03:03:43.155Z,13.80
2022-09-12T03:09:14.536Z,13.77
2022-09-12T03:14:31.823Z,13.60
2022-09-12T03:19:41.531Z,13.65
2022-09-12T03:24:56.705Z,13.53
2022-09-12T03:30:00.149Z,13.48
2022-09-12T03:35:01.792Z,13.46
2022-09-12T03:40:05.854Z,13.45
2022-09-12T03:45:09.201Z,13.71
2022-09-12T03:50:11.343Z,13.63
2022-09-12T03:55:12.926Z,13.93
2022-09-12T04:00:19.590Z,13.65
2022-09-12T04:05:21.502Z,13.55
2022-09-12T04:10:23.064Z,13.54
2022-09-12T04:15:24.618Z,13.52
2022-09-12T04:20:26.195Z,13.67
2022-09-12T04:25:28.358Z,13.72
2022-09-12T04:30:31.746Z,13.66
2022-09-12T04:35:35.763Z,13.56
2022-09-12T04:40:38.000Z,13.54
2022-09-12T04:45:39.801Z,13.54
2022-09-12T04:50:41.385Z,13.57
2022-09-12T04:55:43.466Z,13.55
2022-09-12T05:00:45.048Z,13.53
2022-09-12T05:05:46.576Z,13.57
2022-09-12T05:10:48.185Z,13.62
2022-09-12T05:15:59.684Z,13.57
2022-09-12T05:21:03.830Z,13.60
2022-09-12T05:26:07.067Z,13.78
2022-09-12T05:31:21.358Z,13.81
2022-09-12T05:36:29.333Z,13.86
2022-09-12T05:41:33.618Z,13.93
2022-09-12T05:46:40.262Z,14.05
2022-09-12T05:51:45.715Z,14.17
2022-09-12T05:56:48.433Z,14.04
2022-09-12T06:01:50.161Z,14.08
2022-09-12T06:06:51.936Z,14.09
2022-09-12T06:11:53.978Z,14.25
2022-09-12T06:16:55.679Z,14.39
2022-09-12T06:21:57.411Z,14.41
2022-09-12T06:26:59.001Z,14.56
2022-09-12T06:32:00.769Z,14.76
2022-09-12T06:37:04.011Z,14.79
2022-09-12T06:42:05.818Z,15.05
2022-09-12T06:47:12.063Z,15.28
2022-09-12T06:52:13.694Z,15.57
2022-09-12T06:57:15.227Z,15.64
2022-09-12T07:02:16.849Z,15.48
2022-09-12T07:07:18.538Z,15.78
2022-09-12T07:12:20.123Z,15.72
2022-09-12T07:17:21.671Z,15.68
2022-09-12T07:22:23.240Z,15.60
2022-09-12T07:27:24.802Z,15.72
2022-09-12T07:32:26.676Z,15.64
2022-09-12T07:37:31.517Z,15.60
2022-09-12T07:42:33.051Z,15.67
2022-09-12T07:47:34.610Z,15.66
2022-09-12T07:52:36.385Z,16.06
2022-09-12T07:57:38.019Z,16.30
2022-09-12T08:02:39.823Z,16.24
2022-09-12T08:07:41.457Z,16.27
2022-09-12T08:12:42.947Z,16.50
2022-09-12T08:17:44.731Z,16.36
2022-09-12T08:22:46.295Z,16.40
2022-09-12T08:27:48.379Z,16.47
2022-09-12T08:32:49.924Z,16.16
2022-09-12T08:37:51.445Z,16.10
2022-09-12T08:43:10.216Z,16.62
2022-09-12T08:48:13.323Z,16.75
2022-09-12T08:53:21.489Z,16.84
2022-09-12T08:58:25.183Z,16.65
2022-09-12T09:03:47.417Z,16.83
2022-09-12T09:09:08.366Z,17.71
2022-09-12T09:14:49.504Z,17.69
2022-09-12T09:19:58.366Z,16.97
2022-09-12T09:25:05.153Z,16.86
2022-09-12T09:30:15.393Z,17.39
2022-09-12T09:35:36.250Z,18.72
2022-09-12T09:40:52.863Z,19.33
2022-09-12T09:45:56.283Z,19.02
2022-09-12T09:51:00.475Z,19.02
2022-09-12T09:56:10.303Z,18.87
2022-09-12T10:01:16.081Z,19.42
2022-09-12T10:06:23.600Z,19.80
2022-09-12T10:11:28.475Z,20.09
2022-09-12T10:16:32.856Z,19.23
2022-09-12T10:21:52.070Z,19.12
2022-09-12T10:27:11.737Z,18.98
2022-09-12T10:32:30.374Z,19.50
2022-09-12T10:37:39.528Z,20.38
2022-09-12T10:42:52.900Z,20.32
2022-09-12T10:47:58.465Z,20.10
2022-09-12T10:53:25.242Z,21.28
2022-09-12T10:58:53.740Z,21.40
2022-09-12T11:04:26.159Z,22.35
2022-09-12T11:09:49.072Z,22.47
2022-09-12T11:15:05.257Z,22.13
2022-09-12T11:20:45.018Z,21.79
2022-09-12T11:26:20.210Z,22.11
2022-09-12T11:31:43.829Z,22.98
2022-09-12T11:37:17.941Z,23.37
2022-09-12T11:42:29.439Z,22.63
2022-09-12T11:47:34.912Z,22.90
2022-09-12T11:52:38.770Z,22.90
2022-09-12T11:57:59.023Z,22.65
2022-09-12T12:03:31.555Z,22.27
2022-09-12T12:08:40.110Z,22.00
2022-09-12T12:13:47.578Z,21.52
2022-09-12T12:18:56.347Z,20.70
2022-09-12T12:24:09.908Z,20.88
2022-09-12T12:29:19.480Z,20.34
2022-09-12T12:34:47.744Z,20.11
2022-09-12T12:39:50.280Z,19.89
2022-09-12T12:44:51.873Z,20.47
2022-09-12T12:49:58.168Z,20.54
2022-09-12T12:55:04.176Z,20.39
2022-09-12T13:00:25.526Z,20.55
2022-09-12T13:05:29.420Z,20.74
2022-09-12T13:10:31.778Z,20.74
2022-09-12T13:15:36.468Z,20.76
2022-09-12T13:20:47.944Z,20.61
2022-09-12T13:25:55.578Z,20.48
2022-09-12T13:31:00.407Z,20.39
2022-09-12T13:36:20.510Z,20.76
2022-09-12T13:41:40.264Z,20.62
2022-09-12T13:46:42.645Z,20.83
2022-09-12T13:51:44.381Z,20.78
2022-09-12T13:56:49.952Z,20.74
2022-09-12T14:01:51.908Z,20.85
2022-09-12T14:06:53.829Z,20.69
2022-09-12T14:11:56.577Z,20.74
2022-09-12T14:16:59.195Z,20.51
2022-09-12T14:22:01.915Z,20.52
2022-09-12T14:27:04.939Z,20.55
2022-09-12T14:32:21.490Z,20.63
2022-09-12T14:37:25.238Z,20.62
2022-09-12T14:42:31.390Z,20.81
2022-09-12T14:47:38.151Z,20.75
2022-09-12T14:52:40.149Z,20.63
2022-09-12T14:57:44.421Z,20.61
2022-09-12T15:02:47.640Z,20.41
2022-09-12T15:07:59.500Z,20.47
2022-09-12T15:13:10.887Z,20.59
2022-09-12T15:18:13.789Z,20.37
2022-09-12T15:23:27.182Z,20.41
2022-09-12T15:28:30.682Z,20.46
2022-09-12T15:33:32.391Z,20.46
2022-09-12T15:38:34.100Z,20.24
2022-09-12T15:43:35.871Z,20.17
2022-09-12T15:48:37.905Z,20.18
2022-09-12T15:53:39.767Z,19.98
2022-09-12T15:58:57.298Z,19.88
2022-09-12T16:04:03.200Z,19.80
2022-09-12T16:09:04.898Z,19.64
2022-09-12T16:14:06.670Z,19.69
2022-09-12T16:19:12.503Z,19.39
2022-09-12T16:24:14.174Z,19.32
2022-09-12T16:29:15.896Z,19.16
2022-09-12T16:34:17.500Z,19.31
2022-09-12T16:39:19.138Z,18.99
2022-09-12T16:44:20.864Z,19.16
2022-09-12T16:49:22.483Z,18.96
2022-09-12T16:54:24.185Z,18.72
2022-09-12T16:59:25.841Z,18.46
2022-09-12T17:04:27.613Z,18.40
2022-09-12T17:09:29.469Z,18.22
2022-09-12T17:14:31.053Z,18.12
2022-09-12T17:19:33.086Z,18.15
2022-09-12T17:24:35.257Z,17.95
2022-09-12T17:29:38.571Z,17.85
2022-09-12T17:34:40.291Z,17.92
2022-09-12T17:39:42.145Z,17.84
2022-09-12T17:44:43.938Z,17.58
2022-09-12T17:49:45.718Z,17.45
2022-09-12T17:54:47.334Z,17.45
2022-09-12T17:59:49.061Z,17.28
2022-09-12T18:04:50.974Z,17.14
2022-09-12T18:09:53.094Z,17.07
2022-09-12T18:14:54.656Z,16.99
2022-09-12T18:19:56.298Z,16.90
2022-09-12T18:24:57.976Z,16.81
2022-09-12T18:30:20.163Z,16.69
2022-09-12T18:35:21.443Z,16.49
2022-09-12T18:40:23.189Z,16.33
2022-09-12T18:45:24.824Z,16.20
2022-09-12T18:50:26.456Z,16.14
2022-09-12T18:55:28.028Z,16.00
2022-09-12T19:00:29.669Z,15.93
2022-09-12T19:05:31.776Z,15.84
2022-09-12T19:10:33.432Z,15.70
2022-09-12T19:15:39.732Z,15.67
2022-09-12T19:20:41.347Z,15.43
2022-09-12T19:25:43.036Z,15.35
2022-09-12T19:30:47.938Z,15.28
2022-09-12T19:35:50.365Z,15.31
2022-09-12T19:40:59.908Z,15.14
2022-09-12T19:46:02.053Z,15.02
2022-09-12T19:51:04.412Z,14.88
2022-09-12T19:56:07.106Z,15.01
2022-09-12T20:01:14.458Z,15.12
2022-09-12T20:06:18.031Z,14.97
2022-09-12T20:11:21.760Z,14.74
2022-09-12T20:16:26.459Z,14.59
2022-09-12T20:21:31.857Z,14.64
2022-09-12T20:26:34.357Z,14.49
2022-09-12T20:31:37.968Z,14.26
2022-09-12T20:36:39.611Z,14.15
2022-09-12T20:41:41.198Z,14.00
2022-09-12T20:46:43.086Z,13.73
2022-09-12T20:51:44.972Z,13.82
2022-09-12T20:56:46.463Z,14.01
2022-09-12T21:01:48.228Z,13.92
2022-09-12T21:06:50.366Z,13.77
2022-09-12T21:11:51.921Z,13.65
2022-09-12T21:16:53.701Z,13.55
2022-09-12T21:21:55.243Z,13.59
2022-09-12T21:26:58.966Z,13.61
2022-09-12T21:32:03.888Z,13.57
2022-09-12T21:37:05.449Z,13.47
2022-09-12T21:42:07.103Z,13.36
2022-09-12T21:47:09.253Z,13.27
2022-09-12T21:52:13.854Z,13.31
2022-09-12T21:57:15.668Z,13.50
2022-09-12T22:02:17.233Z,13.19
2022-09-12T22:07:19.404Z,13.10
2022-09-12T22:12:21.452Z,12.92
2022-09-12T22:17:23.592Z,12.70
2022-09-12T22:22:44.119Z,12.59
2022-09-12T22:27:45.654Z,12.55
2022-09-12T22:32:51.467Z,12.80
2022-09-12T22:37:53.280Z,12.76
2022-09-12T22:42:55.022Z,12.84
2022-09-12T22:48:00.600Z,12.78
2022-09-12T22:53:02.655Z,12.89
2022-09-12T22:58:04.779Z,12.71
2022-09-12T23:03:06.367Z,12.80
2022-09-12T23:08:08.056Z,12.65
2022-09-12T23:13:09.771Z,12.37
2022-09-12T23:18:11.298Z,12.53
2022-09-12T23:23:12.849Z,12.43
2022-09-12T23:28:14.680Z,12.56
2022-09-12T23:33:16.486Z,12.50
2022-09-12T23:38:18.038Z,12.39
2022-09-12T23:43:19.849Z,12.19
2022-09-12T23:48:21.429Z,12.21
2022-09-12T23:53:23.413Z,12.28
2022-09-12T23:58:25.621Z,12.07
